Time;durP1;ratioP1;P1;durP2;ratioP2;P2;SDS_P1;SDS_P2;PMS_P1;PMS_P2;Temp;Humidity;BMP_temperature;BMP_pressure;BME280_temperature;BME280_humidity;BME280_pressure;Samples;Min_cycle;Max_cycle;Signal;HPM_P1;HPM_P2
2021/11/01 00:00:18;;;;;;;;;;;307.50;1561.60;;;;;;5074298;28;20369;-61
2021/11/01 00:02:44;;;;;;;;;;;307.50;1587.20;;;;;;5073737;28;20369;-61
2021/11/01 00:05:10;;;;;;;;;;;307.50;1561.60;;;;;;5073932;28;19904;-61
2021/11/01 00:07:36;;;;;;;;;;;307.40;1561.60;;;;;;5073972;28;19904;-61
2021/11/01 00:10:02;;;;;;;;;;;307.40;1587.20;;;;;;5073943;28;19913;-61
2021/11/01 00:12:30;;;;;;;;;;;307.40;1561.60;;;;;;5073954;28;19904;-61
2021/11/01 00:14:58;;;;;;;;;;;307.40;1587.20;;;;;;5073922;28;19905;-61
2021/11/01 00:17:25;;;;;;;;;;;307.40;1587.20;;;;;;5073807;28;19904;-61
2021/11/01 00:19:51;;;;;;;;;;;307.40;1587.20;;;;;;5073805;28;19904;-61
2021/11/01 00:22:16;;;;;;;;;;;307.40;1587.20;;;;;;5073768;28;19904;-61
2021/11/01 00:24:42;;;;;;;;;;;307.40;1587.20;;;;;;5073774;28;20305;-61
2021/11/01 00:27:08;;;;;;;;;;;307.30;1587.20;;;;;;5073543;28;20301;-61
2021/11/01 00:29:34;;;;;;;;;;;307.30;1587.20;;;;;;5073432;28;19923;-61
2021/11/01 00:32:00;;;;;;;;;;;307.30;1587.20;;;;;;5073590;28;19908;-61
2021/11/01 00:34:25;;;;;;;;;;;307.30;1587.20;;;;;;5073737;28;19909;-61
2021/11/01 00:36:53;;;;;;;;;;;307.30;1587.20;;;;;;5073297;28;19904;-61
2021/11/01 00:39:19;;;;;;;;;;;307.30;1587.20;;;;;;5073427;28;19909;-61
2021/11/01 00:41:44;;;;;;;;;;;307.30;1587.20;;;;;;5073447;28;19911;-61
2021/11/01 00:44:10;;;;;;;;;;;307.30;1587.20;;;;;;5075616;28;19942;-61
2021/11/01 00:46:36;;;;;;;;;;;307.30;1587.20;;;;;;5077073;28;19908;-60
2021/11/01 00:49:01;;;;;;;;;;;307.20;1587.20;;;;;;5077053;28;19919;-61
2021/11/01 00:51:27;;;;;;;;;;;307.20;1587.20;;;;;;5077189;28;19912;-61
2021/11/01 00:53:53;;;;;;;;;;;307.20;1612.80;;;;;;5077201;28;19904;-61
2021/11/01 00:56:18;;;;;;;;;;;307.20;1612.80;;;;;;5077187;28;19919;-61
2021/11/01 00:58:44;;;;;;;;;;;307.20;1587.20;;;;;;5076948;28;20369;-61
2021/11/01 01:01:10;;;;;;;;;;;307.20;1587.20;;;;;;5076933;28;19912;-61
2021/11/01 01:03:35;;;;;;;;;;;307.20;1612.80;;;;;;5077100;28;19950;-61
2021/11/01 01:06:03;;;;;;;;;;;307.20;1587.20;;;;;;5076842;28;19904;-61
2021/11/01 01:08:29;;;;;;;;;;;307.20;1587.20;;;;;;5076777;28;19912;-61
2021/11/01 01:10:55;;;;;;;;;;;282.50;1587.20;;;;;;5076843;28;19905;-61
2021/11/01 01:13:23;;;;;;;;;;;282.50;1587.20;;;;;;5076724;28;19904;-61
2021/11/01 01:18:52;;;;;;;;;;;282.40;1587.20;;;;;;5034691;28;20342;-61
2021/11/01 01:24:02;;;;;;;;;;;282.40;1587.20;;;;;;5035060;28;19959;-61
2021/11/01 01:26:28;;;;;;;;;;;282.40;1587.20;;;;;;5034359;28;19905;-61
2021/11/01 01:28:54;;;;;;;;;;;282.30;1587.20;;;;;;5034492;28;20418;-61
2021/11/01 01:31:20;;;;;;;;;;;282.30;1587.20;;;;;;5034011;28;19991;-61
2021/11/01 01:33:46;;;;;;;;;;;282.30;1587.20;;;;;;5034332;28;20347;-61
2021/11/01 01:36:12;;;;;;;;;;;282.30;1587.20;;;;;;5034321;28;19909;-61
2021/11/01 01:38:37;;;;;;;;;;;282.30;1587.20;;;;;;5034480;28;19912;-61
2021/11/01 01:41:12;;;;;;;;;;;282.20;1587.20;;;;;;5034430;28;19909;-61
2021/11/01 01:43:38;;;;;;;;;;;282.20;1587.20;;;;;;5034257;28;19905;-60
2021/11/01 01:46:04;;;;;;;;;;;282.20;1587.20;;;;;;5034250;28;20316;-61
2021/11/01 01:48:29;;;;;;;;;;;282.20;1587.20;;;;;;5033509;28;19924;-61
2021/11/01 01:50:55;;;;;;;;;;;282.10;1587.20;;;;;;5016639;28;20414;-61
2021/11/01 01:53:23;;;;;;;;;;;282.10;1587.20;;;;;;5064299;28;19905;-61
2021/11/01 01:55:49;;;;;;;;;;;282.10;1612.80;;;;;;5075528;28;19905;-61
2021/11/01 01:58:15;;;;;;;;;;;282.10;1587.20;;;;;;5075917;28;19905;-61
2021/11/01 02:01:01;;;;;;;;;;;282.10;1612.80;;;;;;5075857;28;20261;-61
2021/11/01 02:03:27;;;;;;;;;;;282.00;1612.80;;;;;;5075866;28;19904;-61
2021/11/01 02:06:16;;;;;;;;;;;282.00;1587.20;;;;;;5075595;28;20372;-61
2021/11/01 02:08:44;;;;;;;;;;;282.00;1612.80;;;;;;4994210;28;20410;-61
2021/11/01 02:11:13;;;;;;;;;;;282.00;1612.80;;;;;;4994285;28;19906;-61
2021/11/01 02:13:44;;;;;;;;;;;282.00;1612.80;;;;;;4994154;28;20064;-61
2021/11/01 02:16:11;;;;;;;;;;;282.00;1612.80;;;;;;4994197;28;19977;-61
2021/11/01 02:18:38;;;;;;;;;;;282.00;1612.80;;;;;;4994161;28;19905;-61
2021/11/01 02:21:25;;;;;;;;;;;282.00;1612.80;;;;;;4994138;28;19912;-61
2021/11/01 02:24:05;;;;;;;;;;;281.90;1612.80;;;;;;4994111;28;20017;-61
2021/11/01 02:26:32;;;;;;;;;;;281.90;1612.80;;;;;;4994016;28;20249;-61
2021/11/01 02:28:57;;;;;;;;;;;281.90;1612.80;;;;;;4993701;28;19920;-61
2021/11/01 02:31:23;;;;;;;;;;;282.00;1612.80;;;;;;4993868;28;19905;-61
2021/11/01 02:33:50;;;;;;;;;;;281.90;1612.80;;;;;;4994406;28;20299;-61
2021/11/01 02:36:16;;;;;;;;;;;281.90;1612.80;;;;;;4993796;28;19906;-61
2021/11/01 02:38:41;;;;;;;;;;;281.90;1638.40;;;;;;4993799;28;19912;-61
2021/11/01 02:41:18;;;;;;;;;;;281.90;1612.80;;;;;;4993799;28;19957;-61
2021/11/01 02:43:51;;;;;;;;;;;282.00;1612.80;;;;;;4993602;28;19993;-61
2021/11/01 02:46:17;;;;;;;;;;;282.00;1638.40;;;;;;5054562;28;19905;-61
2021/11/01 02:48:48;;;;;;;;;;;282.00;1638.40;;;;;;5074913;28;19919;-61
2021/11/01 02:51:15;;;;;;;;;;;282.00;1612.80;;;;;;5074810;28;19904;-61
2021/11/01 02:53:42;;;;;;;;;;;282.10;1638.40;;;;;;5074774;28;20342;-61
2021/11/01 02:56:09;;;;;;;;;;;282.00;1638.40;;;;;;5074951;28;20242;-61
2021/11/01 02:58:35;;;;;;;;;;;282.10;1612.80;;;;;;5074838;28;20269;-61
2021/11/01 03:01:02;;;;;;;;;;;282.10;1638.40;;;;;;5074739;28;19905;-61
2021/11/01 03:03:28;;;;;;;;;;;282.10;1612.80;;;;;;5074810;28;19912;-61
2021/11/01 03:05:54;;;;;;;;;;;282.10;1612.80;;;;;;5074398;28;20369;-61
2021/11/01 03:08:19;;;;;;;;;;;282.10;1638.40;;;;;;5074239;28;19920;-61
2021/11/01 03:10:46;;;;;;;;;;;282.10;1638.40;;;;;;5074634;28;19904;-61
2021/11/01 03:13:12;;;;;;;;;;;282.00;1638.40;;;;;;5074583;28;19911;-61
2021/11/01 03:15:38;;;;;;;;;;;282.10;1638.40;;;;;;5074624;28;20002;-61
2021/11/01 03:18:04;;;;;;;;;;;282.10;1638.40;;;;;;5074308;28;20249;-61
2021/11/01 03:20:31;;;;;;;;;;;282.10;1612.80;;;;;;5074572;28;19905;-61
2021/11/01 03:22:59;;;;;;;;;;;282.10;1638.40;;;;;;5074479;28;19905;-61
2021/11/01 03:25:27;;;;;;;;;;;282.00;1638.40;;;;;;5074529;28;20254;-61
2021/11/01 03:27:54;;;;;;;;;;;282.00;1612.80;;;;;;5074074;28;20280;-61
2021/11/01 03:30:20;;;;;;;;;;;282.10;1638.40;;;;;;5074818;28;19912;-61
2021/11/01 03:32:46;;;;;;;;;;;282.00;1638.40;;;;;;5074307;28;19904;-61
2021/11/01 03:35:12;;;;;;;;;;;282.00;1612.80;;;;;;5074275;28;19926;-61
2021/11/01 03:37:39;;;;;;;;;;;282.00;1638.40;;;;;;5074256;28;19987;-61
2021/11/01 03:40:05;;;;;;;;;;;282.00;1638.40;;;;;;5074234;28;19908;-60
2021/11/01 03:42:31;;;;;;;;;;;282.00;1612.80;;;;;;5073903;28;19949;-61
2021/11/01 03:45:07;;;;;;;;;;;282.00;1638.40;;;;;;5074084;28;19991;-61
2021/11/01 03:47:38;;;;;;;;;;;282.00;1638.40;;;;;;5073938;28;20406;-61
2021/11/01 03:50:14;;;;;;;;;;;282.00;1638.40;;;;;;5074157;28;19920;-61
2021/11/01 03:52:42;;;;;;;;;;;282.10;1638.40;;;;;;5074719;28;20353;-61
2021/11/01 03:55:08;;;;;;;;;;;282.00;1638.40;;;;;;5073960;28;19905;-61
2021/11/01 03:57:33;;;;;;;;;;;282.00;1638.40;;;;;;5074132;28;19905;-60
2021/11/01 03:59:59;;;;;;;;;;;282.10;1638.40;;;;;;5074003;28;19908;-61
2021/11/01 04:02:25;;;;;;;;;;;282.00;1638.40;;;;;;5074172;28;19947;-60
2021/11/01 04:04:52;;;;;;;;;;;282.00;1638.40;;;;;;5073857;28;19930;-61
2021/11/01 04:07:18;;;;;;;;;;;282.10;1638.40;;;;;;5073786;28;19904;-62
2021/11/01 04:09:44;;;;;;;;;;;282.10;1638.40;;;;;;5074183;28;19912;-61
2021/11/01 04:12:10;;;;;;;;;;;282.10;1664.00;;;;;;5073937;28;20263;-61
2021/11/01 04:14:45;;;;;;;;;;;282.10;1664.00;;;;;;5073843;28;19904;-61
2021/11/01 04:23:01;;;;;;;;;;;282.10;1689.60;;;;;;4957656;29;19907;-61
2021/11/01 04:25:27;;;;;;;;;;;282.10;1664.00;;;;;;4957510;29;19918;-60
2021/11/01 04:27:54;;;;;;;;;;;282.20;1664.00;;;;;;4957421;29;19961;-61
2021/11/01 04:30:20;;;;;;;;;;;282.20;1638.40;;;;;;4957259;29;20006;-61
2021/11/01 04:32:50;;;;;;;;;;;282.20;1638.40;;;;;;4957256;29;20349;-61
2021/11/01 04:35:23;;;;;;;;;;;282.20;1664.00;;;;;;4957316;29;19906;-61
2021/11/01 04:37:52;;;;;;;;;;;282.10;1638.40;;;;;;4957221;29;19907;-61
2021/11/01 04:53:54;;;;;;;;;;;282.00;1638.40;;;;;;4881162;29;19914;-61
2021/11/01 04:56:23;;;;;;;;;;;282.00;1664.00;;;;;;4897491;29;19918;-61
2021/11/01 04:58:49;;;;;;;;;;;282.00;1664.00;;;;;;4920085;28;19911;-61
2021/11/01 05:01:19;;;;;;;;;;;282.00;1664.00;;;;;;4995421;28;19912;-61
2021/11/01 05:03:48;;;;;;;;;;;282.00;1664.00;;;;;;4995665;28;19961;-61
2021/11/01 05:06:21;;;;;;;;;;;282.00;1664.00;;;;;;4995637;28;19905;-61
2021/11/01 05:08:50;;;;;;;;;;;281.90;1664.00;;;;;;4995252;28;20411;-61
2021/11/01 05:11:27;;;;;;;;;;;282.00;1664.00;;;;;;4995593;28;19905;-61
2021/11/01 05:13:53;;;;;;;;;;;282.00;1664.00;;;;;;4995130;28;19996;-61
2021/11/01 05:16:35;;;;;;;;;;;281.90;1664.00;;;;;;4995321;28;19906;-61
2021/11/01 05:19:05;;;;;;;;;;;281.90;1689.60;;;;;;4998778;28;19910;-61
2021/11/01 05:21:36;;;;;;;;;;;281.90;1689.60;;;;;;5076597;28;20420;-61
2021/11/01 05:29:41;;;;;;;;;;;281.90;1689.60;;;;;;5075918;28;19958;-61
2021/11/01 05:32:12;;;;;;;;;;;281.80;1689.60;;;;;;5076487;28;20265;-60
2021/11/01 05:34:37;;;;;;;;;;;281.80;1689.60;;;;;;5076437;28;19904;-61
2021/11/01 05:37:03;;;;;;;;;;;281.80;1689.60;;;;;;5076522;28;20338;-61
2021/11/01 05:39:29;;;;;;;;;;;281.80;1689.60;;;;;;5076244;28;19908;-61
2021/11/01 05:41:55;;;;;;;;;;;281.80;1689.60;;;;;;5076431;28;19904;-61
2021/11/01 05:44:21;;;;;;;;;;;281.80;1689.60;;;;;;5076355;28;19904;-61
2021/11/01 05:46:50;;;;;;;;;;;281.80;1689.60;;;;;;5076029;28;20062;-61
2021/11/01 05:49:21;;;;;;;;;;;281.80;1689.60;;;;;;5076136;28;19927;-61
2021/11/01 05:51:46;;;;;;;;;;;281.80;1689.60;;;;;;5076132;28;19912;-61
2021/11/01 05:54:18;;;;;;;;;;;281.80;1689.60;;;;;;5076016;28;19904;-61
2021/11/01 05:59:40;;;;;;;;;;;281.80;1689.60;;;;;;5076082;28;19993;-61
2021/11/01 06:09:47;;;;;;;;;;;281.70;1689.60;;;;;;5075781;28;19919;-61
2021/11/01 06:14:58;;;;;;;;;;;281.70;1689.60;;;;;;5075691;28;19911;-61
2021/11/01 06:17:23;;;;;;;;;;;281.70;1689.60;;;;;;5075335;28;19904;-61
2021/11/01 06:19:49;;;;;;;;;;;281.70;1715.20;;;;;;5075386;28;20266;-61
2021/11/01 06:22:14;;;;;;;;;;;281.70;1715.20;;;;;;5075426;28;19904;-61
2021/11/01 06:27:13;;;;;;;;;;;281.70;1715.20;;;;;;5075342;28;19904;-61
2021/11/01 06:32:57;;;;;;;;;;;281.70;1715.20;;;;;;5033312;28;19912;-61
2021/11/01 06:43:58;;;;;;;;;;;281.80;1715.20;;;;;;5033114;28;19947;-61
2021/11/01 07:15:32;;;;;;;;;;;282.20;1715.20;;;;;;5032604;28;19951;-62
2021/11/01 08:28:07;;;;;;;;;;;358.40;1740.80;;;;;;5100830;28;19947;-62
2021/11/01 08:52:18;;;;;;;;;;;359.30;1587.20;;;;;;5018500;28;19906;-62
2021/11/01 09:13:39;;;;;;;;;;;;;;;;;;;;;
2021/11/01 09:21:31;;;;;;;;;;;409.60;1510.40;;;;;;5070957;28;19904;-63
2021/11/01 09:26:37;;;;;;;;;;;409.70;1484.80;;;;;;5096779;28;20246;-63
2021/11/01 09:37:30;;;;;;;;;;;410.10;1459.20;;;;;;5096399;28;20011;-63
2021/11/01 09:42:52;;;;;;;;;;;410.30;1459.20;;;;;;5096870;28;20395;-63
2021/11/01 09:45:19;;;;;;;;;;;410.30;1433.60;;;;;;5096141;28;20323;-63
2021/11/01 09:47:46;;;;;;;;;;;410.40;1433.60;;;;;;5096054;28;19958;-63
2021/11/01 09:50:15;;;;;;;;;;;410.50;1433.60;;;;;;5096101;28;20273;-63
2021/11/01 09:52:43;;;;;;;;;;;435.20;1433.60;;;;;;5096231;28;19904;-63
2021/11/01 10:00:37;;;;;;;;;;;435.40;1408.00;;;;;;5096464;28;20259;-64
2021/11/01 10:03:03;;;;;;;;;;;435.40;1408.00;;;;;;5096029;28;19904;-62
2021/11/01 10:05:28;;;;;;;;;;;435.50;1408.00;;;;;;5096020;28;19930;-63
2021/11/01 10:07:54;;;;;;;;;;;435.60;1382.40;;;;;;5095794;28;19904;-63
2021/11/01 10:10:20;;;;;;;;;;;435.60;1382.40;;;;;;5095856;28;19923;-63
2021/11/01 10:12:48;;;;;;;;;;;435.70;1382.40;;;;;;5096008;28;19911;-63
2021/11/01 10:18:02;;;;;;;;;;;435.80;1356.80;;;;;;5095852;28;19926;-63
2021/11/01 10:20:28;;;;;;;;;;;435.90;1356.80;;;;;;5095812;28;19911;-63
2021/11/01 10:22:54;;;;;;;;;;;436.00;1356.80;;;;;;5095542;28;19999;-63
2021/11/01 10:25:21;;;;;;;;;;;436.00;1356.80;;;;;;5095501;28;19945;-63
2021/11/01 10:27:56;;;;;;;;;;;436.10;1331.20;;;;;;5095396;28;19904;-63
2021/11/01 10:30:32;;;;;;;;;;;460.80;1356.80;;;;;;5095430;28;20370;-63
2021/11/01 10:32:59;;;;;;;;;;;460.80;1356.80;;;;;;5095348;28;19904;-63
2021/11/01 10:35:31;;;;;;;;;;;460.90;1356.80;;;;;;5095822;28;19904;-63
2021/11/01 10:37:56;;;;;;;;;;;460.90;1331.20;;;;;;5095451;28;20299;-63
2021/11/01 10:40:24;;;;;;;;;;;460.90;1331.20;;;;;;5095146;28;19919;-63
2021/11/01 10:42:50;;;;;;;;;;;460.90;1305.60;;;;;;5076757;28;19911;-63
2021/11/01 11:13:12;;;;;;;;;;;461.40;1280.00;;;;;;4954801;29;19929;-63
2021/11/01 11:15:39;;;;;;;;;;;461.50;1254.40;;;;;;4954367;29;20344;-63
2021/11/01 11:18:44;;;;;;;;;;;461.50;1254.40;;;;;;4954386;29;19907;-63
2021/11/01 11:21:15;;;;;;;;;;;461.50;1254.40;;;;;;4954287;29;19910;-63
2021/11/01 11:40:09;;;;;;;;;;;486.40;1228.80;;;;;;4954516;29;19914;-63
2021/11/01 11:50:32;;;;;;;;;;;486.40;1228.80;;;;;;4992997;28;19960;-63
2021/11/01 11:53:14;;;;;;;;;;;486.50;1203.20;;;;;;4992746;28;19906;-63
2021/11/01 11:55:42;;;;;;;;;;;486.50;1228.80;;;;;;4992613;28;19909;-64
2021/11/01 11:58:09;;;;;;;;;;;486.50;1228.80;;;;;;4992468;28;19906;-64
2021/11/01 12:00:36;;;;;;;;;;;486.50;1228.80;;;;;;4992493;28;20018;-63
2021/11/01 12:03:27;;;;;;;;;;;486.50;1228.80;;;;;;4992403;28;19929;-63
2021/11/01 12:06:07;;;;;;;;;;;486.50;1228.80;;;;;;4973309;28;19968;-63
2021/11/01 12:08:40;;;;;;;;;;;486.60;1203.20;;;;;;5034750;28;19908;-64
2021/11/01 12:18:54;;;;;;;;;;;486.70;1203.20;;;;;;5094503;28;20309;-63
2021/11/01 12:21:21;;;;;;;;;;;486.70;1203.20;;;;;;5093733;28;19910;-64
2021/11/01 12:23:47;;;;;;;;;;;486.70;1203.20;;;;;;5093802;28;19911;-64
2021/11/01 12:26:14;;;;;;;;;;;486.80;1203.20;;;;;;5075351;28;19998;-63
2021/11/01 12:28:40;;;;;;;;;;;486.80;1203.20;;;;;;5093823;28;19977;-63
2021/11/01 12:31:13;;;;;;;;;;;486.80;1203.20;;;;;;5093652;28;20352;-63
2021/11/01 12:33:42;;;;;;;;;;;486.80;1203.20;;;;;;5094039;28;20022;-64
2021/11/01 12:36:09;;;;;;;;;;;486.80;1203.20;;;;;;5093683;28;19904;-64
2021/11/01 12:38:49;;;;;;;;;;;486.80;1177.60;;;;;;5094082;28;19904;-63
2021/11/01 12:41:16;;;;;;;;;;;486.80;1177.60;;;;;;5096985;28;19918;-64
2021/11/01 12:57:23;;;;;;;;;;;486.80;1177.60;;;;;;5097872;28;19911;-63
2021/11/01 12:59:49;;;;;;;;;;;486.80;1177.60;;;;;;5096777;28;19913;-63
2021/11/01 13:02:30;;;;;;;;;;;486.80;1177.60;;;;;;5097069;28;20334;-64
2021/11/01 13:04:58;;;;;;;;;;;486.80;1177.60;;;;;;5078749;28;20011;-63
2021/11/01 13:18:11;;;;;;;;;;;486.80;1177.60;;;;;;5034481;28;20290;-63
2021/11/01 13:20:41;;;;;;;;;;;486.80;1177.60;;;;;;5034687;28;19959;-64
2021/11/01 13:23:07;;;;;;;;;;;486.80;1177.60;;;;;;5035028;28;19948;-63
2021/11/01 13:38:49;;;;;;;;;;;486.70;1203.20;;;;;;4937128;29;19961;-63
2021/11/01 13:41:23;;;;;;;;;;;486.70;1203.20;;;;;;4936774;29;19914;-64
2021/11/01 13:43:50;;;;;;;;;;;486.70;1177.60;;;;;;4936871;29;19934;-64
2021/11/01 13:46:16;;;;;;;;;;;486.70;1177.60;;;;;;4936591;29;19906;-63
2021/11/01 13:48:42;;;;;;;;;;;486.70;1203.20;;;;;;4936752;29;20401;-63
2021/11/01 13:51:10;;;;;;;;;;;486.70;1203.20;;;;;;4935708;29;19906;-63
2021/11/01 13:54:17;;;;;;;;;;;486.60;1203.20;;;;;;4936552;29;20259;-63
2021/11/01 13:56:48;;;;;;;;;;;486.60;1203.20;;;;;;4994462;28;19910;-63
2021/11/01 14:29:38;;;;;;;;;;;461.60;1228.80;;;;;;5033206;28;20346;-63
2021/11/01 14:57:25;;;;;;;;;;;461.20;1280.00;;;;;;4978965;28;20383;-63
2021/11/01 14:59:56;;;;;;;;;;;461.20;1305.60;;;;;;5012852;28;20000;-63
2021/11/01 15:25:47;;;;;;;;;;;435.80;1382.40;;;;;;5061322;28;19904;-63
2021/11/01 15:34:21;;;;;;;;;;;435.70;1382.40;;;;;;4974138;28;19906;-63
2021/11/01 16:20:05;;;;;;;;;;;409.90;1459.20;;;;;;5097850;28;20329;-62
2021/11/01 16:22:30;;;;;;;;;;;409.90;1459.20;;;;;;5102147;28;19972;-62
2021/11/01 16:24:56;;;;;;;;;;;409.80;1459.20;;;;;;5096480;28;20361;-62
2021/11/01 16:27:23;;;;;;;;;;;409.90;1459.20;;;;;;5096313;28;19907;-62
2021/11/01 16:32:20;;;;;;;;;;;409.80;1433.60;;;;;;5095561;28;19904;-63
2021/11/01 16:34:48;;;;;;;;;;;409.80;1433.60;;;;;;5094972;28;19908;-62
2021/11/01 16:40:13;;;;;;;;;;;409.80;1433.60;;;;;;5018972;28;19920;-62
2021/11/01 16:42:41;;;;;;;;;;;409.70;1433.60;;;;;;5020164;28;19909;-63
2021/11/01 16:45:13;;;;;;;;;;;409.60;1433.60;;;;;;5019785;28;20378;-62
2021/11/01 16:47:43;;;;;;;;;;;409.60;1433.60;;;;;;5020101;28;20391;-62
2021/11/01 16:50:10;;;;;;;;;;;409.60;1433.60;;;;;;5018426;28;19917;-62
2021/11/01 16:52:39;;;;;;;;;;;409.60;1433.60;;;;;;5020114;28;19909;-63
2021/11/01 16:55:12;;;;;;;;;;;409.60;1433.60;;;;;;5019580;28;19913;-62
2021/11/01 16:57:43;;;;;;;;;;;409.60;1433.60;;;;;;5019842;28;19966;-62
2021/11/01 17:27:14;;;;;;;;;;;384.70;1433.60;;;;;;5012267;28;19976;-62
2021/11/01 17:30:15;;;;;;;;;;;384.70;1433.60;;;;;;5013736;28;19961;-62
2021/11/01 17:35:23;;;;;;;;;;;384.60;1459.20;;;;;;5013504;28;19928;-62
2021/11/01 18:36:40;;;;;;;;;;;384.10;1536.00;;;;;;5011704;28;19912;-63
2021/11/01 18:39:23;;;;;;;;;;;384.00;1536.00;;;;;;5011410;28;19909;-63
2021/11/01 18:53:15;;;;;;;;;;;384.00;1484.80;;;;;;4913572;29;19918;-63
2021/11/01 18:55:50;;;;;;;;;;;359.30;1484.80;;;;;;4914591;29;19961;-63
2021/11/01 18:58:17;;;;;;;;;;;359.30;1484.80;;;;;;4914956;29;19907;-63
2021/11/01 19:00:43;;;;;;;;;;;359.30;1484.80;;;;;;4914913;29;19943;-63
2021/11/01 19:03:14;;;;;;;;;;;359.20;1484.80;;;;;;4914574;29;20005;-62
2021/11/01 19:05:54;;;;;;;;;;;359.20;1484.80;;;;;;4914741;29;19915;-63
2021/11/01 20:11:02;;;;;;;;;;;358.60;1536.00;;;;;;5074046;28;19923;-63
2021/11/01 21:24:50;;;;;;;;;;;333.60;1612.80;;;;;;5075810;28;19969;-67
2021/11/01 21:27:17;;;;;;;;;;;333.70;1612.80;;;;;;5075412;28;19912;-62
2021/11/01 21:29:42;;;;;;;;;;;333.70;1612.80;;;;;;5074281;28;19966;-62
2021/11/01 21:32:08;;;;;;;;;;;333.70;1638.40;;;;;;5073402;28;19963;-63
2021/11/01 21:34:39;;;;;;;;;;;333.70;1638.40;;;;;;5075644;28;19908;-63
2021/11/01 21:37:06;;;;;;;;;;;358.40;1612.80;;;;;;5072548;28;20345;-63
2021/11/01 21:39:33;;;;;;;;;;;358.40;1612.80;;;;;;5075351;28;19908;-64
2021/11/01 21:41:58;;;;;;;;;;;358.40;1612.80;;;;;;5073475;28;19955;-63
2021/11/01 21:44:25;;;;;;;;;;;358.40;1638.40;;;;;;5075355;28;20432;-63
2021/11/01 21:46:50;;;;;;;;;;;358.40;1638.40;;;;;;5074472;28;19927;-62
2021/11/01 21:49:16;;;;;;;;;;;358.50;1612.80;;;;;;5110197;28;19916;-63
2021/11/01 21:51:43;;;;;;;;;;;358.50;1612.80;;;;;;5108588;28;19904;-62
2021/11/01 21:56:44;;;;;;;;;;;358.50;1612.80;;;;;;5098054;28;19916;-62
2021/11/01 22:10:01;;;;;;;;;;;358.50;1612.80;;;;;;5096622;28;19923;-63
2021/11/01 22:18:06;;;;;;;;;;;358.60;1612.80;;;;;;5092096;28;19933;-63
2021/11/01 22:20:35;;;;;;;;;;;358.60;1612.80;;;;;;5076919;28;19904;-63
2021/11/01 22:23:14;;;;;;;;;;;358.60;1612.80;;;;;;5096385;28;19991;-63
2021/11/01 22:25:46;;;;;;;;;;;358.60;1612.80;;;;;;5073594;28;20361;-64
2021/11/01 22:33:53;;;;;;;;;;;358.60;1612.80;;;;;;5075431;28;19919;-63
2021/11/01 22:42:02;;;;;;;;;;;358.60;1612.80;;;;;;5099987;28;19998;-63
2021/11/01 22:57:41;;;;;;;;;;;358.60;1638.40;;;;;;5075243;28;19930;-63
2021/11/01 23:00:18;;;;;;;;;;;358.60;1638.40;;;;;;5094271;28;19912;-63
2021/11/01 23:02:44;;;;;;;;;;;358.60;1638.40;;;;;;5093815;28;20002;-63
2021/11/01 23:05:30;;;;;;;;;;;358.60;1638.40;;;;;;5075502;28;19953;-63
2021/11/01 23:32:33;;;;;;;;;;;358.50;1638.40;;;;;;5115198;28;19992;-64
2021/11/01 23:34:59;;;;;;;;;;;358.50;1638.40;;;;;;5096320;28;19947;-64
2021/11/01 23:37:24;;;;;;;;;;;358.50;1664.00;;;;;;5114702;28;19983;-64
2021/11/01 23:39:50;;;;;;;;;;;358.40;1664.00;;;;;;5114699;28;19914;-64
2021/11/01 23:42:15;;;;;;;;;;;358.40;1664.00;;;;;;5114796;28;19903;-63
2021/11/01 23:44:41;;;;;;;;;;;358.40;1664.00;;;;;;5114412;28;19990;-64
2021/11/01 23:47:06;;;;;;;;;;;358.40;1664.00;;;;;;5113991;28;19922;-63
2021/11/01 23:49:32;;;;;;;;;;;358.40;1664.00;;;;;;5095677;28;20353;-63
2021/11/01 23:52:17;;;;;;;;;;;358.40;1664.00;;;;;;5115048;28;19957;-63
2021/11/01 23:54:43;;;;;;;;;;;358.40;1664.00;;;;;;5114325;28;19912;-63
2021/11/01 23:57:10;;;;;;;;;;;358.40;1664.00;;;;;;5114680;28;19930;-63
2021/11/01 23:59:36;;;;;;;;;;;358.40;1664.00;;;;;;5096167;28;19990;-63
